createdAt,value
2017-07-02T00:02:07.820Z,66.43
2017-07-02T00:04:36.604Z,42.23
2017-07-02T00:07:04.940Z,30.17
2017-07-02T00:09:33.292Z,37.97
2017-07-02T00:12:01.908Z,48.63
2017-07-02T00:14:30.249Z,45.27
2017-07-02T00:16:58.582Z,53.00
2017-07-02T00:19:27.683Z,50.73
2017-07-02T00:21:56.018Z,58.03
2017-07-02T00:24:24.366Z,39.10
2017-07-02T00:26:53.023Z,50.63
2017-07-02T00:29:22.130Z,53.07
2017-07-02T00:31:50.506Z,57.23
2017-07-02T00:34:19.158Z,34.33
2017-07-02T00:36:47.489Z,36.20
2017-07-02T00:39:15.832Z,33.67
2017-07-02T00:41:44.839Z,38.57
2017-07-02T00:44:13.187Z,28.40
2017-07-02T00:46:41.530Z,59.63
2017-07-02T00:49:10.174Z,38.73
2017-07-02T00:51:39.316Z,45.17
2017-07-02T00:54:07.667Z,38.93
2017-07-02T00:56:36.297Z,44.50
2017-07-02T00:59:04.633Z,50.63
2017-07-02T01:01:32.977Z,43.20
2017-07-02T01:04:02.053Z,40.03
2017-07-02T01:06:30.393Z,34.87
2017-07-02T01:08:58.743Z,40.07
2017-07-02T01:11:27.406Z,42.17
2017-07-02T01:13:55.732Z,43.37
2017-07-02T01:16:24.067Z,34.10
2017-07-02T01:18:52.880Z,33.83
2017-07-02T01:21:21.218Z,31.43
2017-07-02T01:23:49.559Z,22.70
2017-07-02T01:26:18.367Z,30.60
2017-07-02T01:28:46.700Z,32.27
2017-07-02T01:31:15.823Z,30.60
2017-07-02T01:33:44.459Z,25.07
2017-07-02T01:36:12.788Z,32.13
2017-07-02T01:38:41.133Z,31.53
2017-07-02T01:41:10.073Z,33.60
2017-07-02T01:43:38.416Z,30.73
2017-07-02T01:46:07.545Z,28.67
2017-07-02T01:48:36.369Z,27.30
2017-07-02T01:51:04.723Z,16.03
2017-07-02T01:53:33.058Z,18.20
2017-07-02T01:56:01.708Z,19.93
2017-07-02T01:58:30.060Z,48.53
2017-07-02T02:01:16.466Z,13.80
2017-07-02T02:03:44.794Z,25.10
2017-07-02T02:06:13.156Z,24.10
2017-07-02T02:08:41.975Z,18.60
2017-07-02T02:11:10.316Z,29.17
2017-07-02T02:13:38.666Z,23.57
2017-07-02T02:16:07.322Z,26.97
2017-07-02T02:18:35.690Z,16.33
2017-07-02T02:21:04.053Z,36.80
2017-07-02T02:23:32.725Z,29.67
2017-07-02T02:26:01.139Z,26.60
2017-07-02T02:28:29.500Z,34.77
2017-07-02T02:30:58.312Z,41.90
2017-07-02T02:33:26.673Z,21.07
2017-07-02T02:35:55.801Z,22.77
2017-07-02T02:38:24.435Z,30.07
2017-07-02T02:40:52.773Z,26.17
2017-07-02T02:43:21.136Z,32.70
2017-07-02T02:45:50.036Z,25.73
2017-07-02T02:48:18.365Z,28.73
2017-07-02T02:50:46.711Z,30.23
2017-07-02T02:53:15.532Z,27.70
2017-07-02T02:55:43.867Z,30.23
2017-07-02T02:58:12.217Z,22.87
2017-07-02T03:00:40.977Z,29.93
2017-07-02T03:03:09.305Z,22.80
2017-07-02T03:05:37.650Z,35.97
2017-07-02T03:08:06.295Z,26.13
2017-07-02T03:10:34.632Z,29.20
2017-07-02T03:13:02.998Z,30.83
2017-07-02T03:15:32.478Z,16.70
2017-07-02T03:18:00.842Z,28.90
2017-07-02T03:20:29.210Z,23.90
2017-07-02T03:22:58.055Z,36.80
2017-07-02T03:25:26.408Z,34.53
2017-07-02T03:27:54.754Z,30.97
2017-07-02T03:30:23.494Z,25.60
2017-07-02T03:32:51.825Z,27.33
2017-07-02T03:35:20.158Z,33.97
2017-07-02T03:37:49.692Z,18.77
2017-07-02T03:40:18.026Z,32.73
2017-07-02T03:42:46.400Z,20.93
2017-07-02T03:45:15.244Z,25.77
2017-07-02T03:47:43.574Z,25.73
2017-07-02T03:50:11.947Z,22.90
2017-07-02T03:52:40.849Z,22.23
2017-07-02T03:55:09.176Z,44.43
2017-07-02T03:57:37.501Z,29.20
2017-07-02T04:00:07.380Z,30.97
2017-07-02T04:02:35.799Z,17.87
2017-07-02T04:05:04.144Z,23.00
2017-07-02T04:07:32.772Z,34.10
2017-07-02T04:10:01.113Z,16.27
2017-07-02T04:12:29.451Z,25.23
2017-07-02T04:14:58.090Z,28.53
2017-07-02T04:17:26.441Z,32.77
2017-07-02T04:19:54.798Z,37.13
2017-07-02T04:22:23.677Z,28.73
2017-07-02T04:24:52.019Z,34.33
2017-07-02T04:27:20.381Z,25.77
2017-07-02T04:29:49.125Z,31.60
2017-07-02T04:32:17.476Z,36.87
2017-07-02T04:34:45.822Z,23.93
2017-07-02T04:37:14.569Z,22.13
2017-07-02T04:39:42.912Z,28.00
2017-07-02T04:42:11.277Z,23.23
2017-07-02T04:44:40.199Z,18.47
2017-07-02T04:47:08.531Z,19.50
2017-07-02T04:49:36.867Z,28.77
2017-07-02T04:52:06.293Z,33.53
2017-07-02T04:54:35.492Z,21.83
2017-07-02T04:57:03.825Z,21.63
2017-07-02T04:59:32.498Z,31.73
2017-07-02T05:02:00.835Z,20.87
2017-07-02T05:04:29.175Z,20.50
2017-07-02T05:06:58.695Z,30.30
2017-07-02T05:09:27.814Z,27.60
2017-07-02T05:11:56.145Z,22.77
2017-07-02T05:14:24.770Z,19.47
2017-07-02T05:16:53.103Z,19.90
2017-07-02T05:19:21.483Z,24.63
2017-07-02T05:21:50.306Z,31.83
2017-07-02T05:24:18.643Z,34.57
2017-07-02T05:26:46.972Z,21.97
2017-07-02T05:29:16.090Z,13.90
2017-07-02T05:31:44.462Z,27.80
2017-07-02T05:34:12.796Z,23.77
2017-07-02T05:36:41.423Z,28.80
2017-07-02T05:39:09.757Z,36.60
2017-07-02T05:41:38.104Z,21.50
2017-07-02T05:44:06.775Z,20.47
2017-07-02T05:46:35.106Z,13.70
2017-07-02T05:49:03.460Z,19.10
2017-07-02T05:51:32.511Z,18.17
2017-07-02T05:54:00.846Z,22.00
2017-07-02T05:56:29.195Z,14.00
2017-07-02T05:58:58.364Z,17.20
2017-07-02T06:01:26.709Z,14.77
2017-07-02T06:03:55.805Z,18.63
2017-07-02T06:06:24.409Z,17.33
2017-07-02T06:08:52.775Z,20.13
2017-07-02T06:11:21.878Z,30.00
2017-07-02T06:13:51.092Z,24.60
2017-07-02T06:16:19.438Z,23.27
2017-07-02T06:18:47.770Z,20.03
2017-07-02T06:21:16.395Z,14.50
2017-07-02T06:23:44.713Z,21.77
2017-07-02T06:26:13.051Z,24.40
2017-07-02T06:28:41.764Z,14.70
2017-07-02T06:31:10.109Z,16.87
2017-07-02T06:33:38.453Z,22.63
2017-07-02T06:36:07.134Z,13.17
2017-07-02T06:38:35.501Z,20.13
2017-07-02T06:41:03.838Z,19.60
2017-07-02T06:43:32.452Z,18.20
2017-07-02T06:46:00.822Z,12.60
2017-07-02T06:48:29.181Z,16.03
2017-07-02T06:50:57.873Z,27.57
2017-07-02T06:53:26.231Z,16.83
2017-07-02T06:55:54.578Z,20.80
2017-07-02T06:58:23.329Z,19.03
2017-07-02T07:00:52.133Z,24.57
2017-07-02T07:03:20.488Z,24.93
2017-07-02T07:05:49.129Z,26.57
2017-07-02T07:08:17.470Z,21.50
2017-07-02T07:10:45.818Z,35.87
2017-07-02T07:13:14.639Z,28.30
2017-07-02T07:15:42.974Z,20.70
2017-07-02T07:18:11.324Z,29.17
2017-07-02T07:20:40.216Z,22.00
2017-07-02T07:23:08.563Z,19.00
2017-07-02T07:25:36.913Z,30.27
2017-07-02T07:28:05.585Z,23.30
2017-07-02T07:30:33.910Z,26.47
2017-07-02T07:33:03.030Z,23.63
2017-07-02T07:35:31.660Z,20.60
2017-07-02T07:37:59.991Z,21.97
2017-07-02T07:40:28.331Z,23.20
2017-07-02T07:42:57.405Z,29.57
2017-07-02T07:45:25.765Z,21.60
2017-07-02T07:47:54.097Z,29.13
2017-07-02T07:50:23.717Z,36.50
2017-07-02T07:52:52.061Z,24.57
2017-07-02T07:55:20.398Z,15.73
2017-07-02T07:57:49.142Z,21.40
2017-07-02T08:00:17.489Z,23.47
2017-07-02T08:02:45.993Z,25.17
2017-07-02T08:05:14.813Z,10.77
2017-07-02T08:07:43.326Z,21.13
2017-07-02T08:10:11.679Z,22.23
2017-07-02T08:12:40.440Z,21.40
2017-07-02T08:15:08.786Z,30.70
2017-07-02T08:17:37.153Z,12.70
2017-07-02T08:20:05.886Z,29.93
2017-07-02T08:22:34.232Z,14.37
2017-07-02T08:25:02.565Z,11.13
2017-07-02T08:27:31.516Z,19.40
2017-07-02T08:29:59.844Z,17.97
2017-07-02T08:32:28.179Z,15.83
2017-07-02T08:34:56.776Z,24.57
2017-07-02T08:37:25.118Z,14.90
2017-07-02T08:39:53.457Z,16.30
2017-07-02T08:42:22.121Z,21.47
2017-07-02T08:44:51.243Z,14.60
2017-07-02T08:47:19.577Z,13.17
2017-07-02T08:49:48.502Z,20.70
2017-07-02T08:52:16.828Z,19.90
2017-07-02T08:54:45.163Z,19.53
2017-07-02T08:57:13.782Z,12.77
2017-07-02T08:59:42.100Z,24.80
2017-07-02T09:02:10.451Z,11.60
2017-07-02T09:04:39.093Z,14.57
2017-07-02T09:07:07.431Z,15.50
2017-07-02T09:09:35.754Z,22.60
2017-07-02T09:12:04.618Z,20.97
2017-07-02T09:14:32.962Z,18.67
2017-07-02T09:17:01.293Z,13.03
2017-07-02T09:19:29.924Z,11.30
2017-07-02T09:21:58.256Z,13.87
2017-07-02T09:24:26.576Z,13.00
2017-07-02T09:26:55.324Z,13.13
2017-07-02T09:29:23.653Z,12.50
2017-07-02T09:31:51.979Z,12.33
2017-07-02T09:34:20.852Z,14.03
2017-07-02T09:36:49.975Z,14.70
2017-07-02T09:39:18.297Z,12.37
2017-07-02T09:41:46.971Z,12.70
2017-07-02T09:44:15.335Z,13.77
2017-07-02T09:46:43.727Z,15.50
2017-07-02T09:49:12.491Z,11.93
2017-07-02T09:51:40.824Z,13.47
2017-07-02T09:54:09.180Z,12.00
2017-07-02T09:56:38.053Z,27.30
2017-07-02T09:59:06.452Z,18.07
2017-07-02T10:01:34.776Z,23.77
2017-07-02T10:04:03.410Z,16.73
2017-07-02T10:06:31.748Z,12.83
2017-07-02T10:09:00.098Z,16.23
2017-07-02T10:11:28.918Z,17.40
2017-07-02T10:13:57.260Z,13.40
2017-07-02T10:16:25.607Z,12.70
2017-07-02T10:18:54.661Z,10.60
2017-07-02T10:21:23.002Z,16.13
2017-07-02T10:23:51.351Z,8.33
2017-07-02T10:26:20.042Z,12.90
2017-07-02T10:28:48.375Z,7.27
2017-07-02T10:31:16.689Z,7.17
2017-07-02T10:33:45.540Z,8.50
2017-07-02T10:36:13.903Z,7.43
2017-07-02T10:38:42.259Z,6.90
2017-07-02T10:41:11.398Z,6.97
2017-07-02T10:43:39.754Z,8.23
2017-07-02T10:46:08.104Z,11.40
2017-07-02T10:48:36.720Z,12.33
2017-07-02T10:51:05.072Z,7.30
2017-07-02T10:53:33.406Z,7.37
2017-07-02T10:56:02.300Z,8.00
2017-07-02T10:58:30.657Z,7.97
2017-07-02T11:00:59.005Z,11.63
2017-07-02T11:03:28.194Z,8.10
2017-07-02T11:05:56.562Z,8.83
2017-07-02T11:08:24.914Z,8.10
2017-07-02T11:10:53.776Z,8.37
2017-07-02T11:13:22.136Z,7.50
2017-07-02T11:15:50.539Z,12.27
2017-07-02T11:18:19.167Z,6.77
2017-07-02T11:20:47.502Z,6.00
2017-07-02T11:23:15.845Z,5.33
2017-07-02T11:25:44.690Z,5.93
2017-07-02T11:28:13.022Z,5.60
2017-07-02T11:30:41.392Z,4.07
2017-07-02T11:33:10.048Z,4.67
2017-07-02T11:35:38.415Z,4.23
2017-07-02T11:38:06.761Z,3.80
2017-07-02T11:40:36.397Z,3.67
2017-07-02T11:43:04.742Z,3.10
2017-07-02T11:45:33.086Z,3.43
2017-07-02T11:48:02.020Z,3.43
2017-07-02T11:50:30.353Z,4.10
2017-07-02T11:52:58.686Z,2.63
2017-07-02T11:55:28.047Z,3.63
2017-07-02T11:57:56.390Z,2.70
2017-07-02T12:00:24.735Z,3.20
2017-07-02T12:02:53.364Z,2.80
2017-07-02T12:05:21.707Z,2.60
2017-07-02T12:07:50.868Z,3.17
2017-07-02T12:10:19.952Z,4.13
2017-07-02T12:12:48.312Z,3.43
2017-07-02T12:15:16.659Z,3.17
2017-07-02T12:17:46.031Z,2.93
2017-07-02T12:20:14.358Z,3.40
2017-07-02T12:22:42.708Z,2.40
2017-07-02T12:25:11.357Z,2.77
2017-07-02T12:27:39.683Z,3.53
2017-07-02T12:30:08.789Z,3.07
2017-07-02T12:32:37.621Z,2.43
2017-07-02T12:35:05.958Z,2.50
2017-07-02T12:37:35.066Z,2.40
2017-07-02T12:40:03.689Z,2.37
2017-07-02T12:42:32.027Z,2.57
2017-07-02T12:45:00.375Z,2.33
2017-07-02T12:47:29.304Z,2.53
2017-07-02T12:49:57.631Z,4.80
2017-07-02T12:52:25.981Z,3.00
2017-07-02T12:54:54.915Z,3.80
2017-07-02T12:57:23.253Z,6.33
2017-07-02T12:59:51.579Z,3.83
2017-07-02T13:02:20.273Z,4.10
2017-07-02T13:04:48.629Z,4.00
2017-07-02T13:07:16.997Z,6.60
2017-07-02T13:09:45.641Z,4.67
2017-07-02T13:12:13.990Z,3.07
2017-07-02T13:14:43.153Z,4.37
2017-07-02T13:17:12.110Z,3.50
2017-07-02T13:19:40.438Z,3.73
2017-07-02T13:22:08.756Z,3.20
2017-07-02T13:24:37.376Z,9.20
2017-07-02T13:27:05.749Z,3.03
2017-07-02T13:29:34.068Z,3.60
2017-07-02T13:32:02.769Z,3.60
2017-07-02T13:34:31.100Z,10.43
2017-07-02T13:36:59.449Z,7.93
2017-07-02T13:39:28.299Z,4.13
2017-07-02T13:41:56.704Z,2.93
2017-07-02T13:44:25.083Z,5.00
2017-07-02T13:46:53.878Z,4.40
2017-07-02T13:49:22.221Z,5.83
2017-07-02T13:51:50.568Z,2.90
2017-07-02T13:54:19.199Z,1.70
2017-07-02T13:56:47.544Z,9.33
2017-07-02T13:59:15.910Z,3.17
2017-07-02T14:01:44.979Z,3.93
2017-07-02T14:04:13.941Z,8.10
2017-07-02T14:06:42.300Z,7.70
2017-07-02T14:09:11.047Z,5.07
2017-07-02T14:11:40.202Z,3.53
2017-07-02T14:14:08.549Z,15.33
2017-07-02T14:16:37.170Z,4.30
2017-07-02T14:19:06.283Z,7.97
2017-07-02T14:21:35.373Z,3.90
2017-07-02T14:24:04.986Z,3.57
2017-07-02T14:26:33.347Z,12.57
2017-07-02T14:29:01.680Z,4.93
2017-07-02T14:31:30.427Z,11.23
2017-07-02T14:33:58.770Z,12.73
2017-07-02T14:36:27.112Z,6.67
2017-07-02T14:38:55.856Z,9.63
2017-07-02T14:41:24.198Z,12.73
2017-07-02T14:43:52.560Z,7.50
2017-07-02T14:46:21.957Z,11.57
2017-07-02T14:48:50.304Z,11.77
2017-07-02T14:51:19.391Z,6.77
2017-07-02T14:53:48.054Z,6.70
2017-07-02T14:56:16.401Z,7.40
2017-07-02T14:58:44.724Z,9.83
2017-07-02T15:01:13.346Z,6.93
2017-07-02T15:03:41.699Z,10.40
2017-07-02T15:06:10.295Z,5.97
2017-07-02T15:08:39.551Z,8.53
2017-07-02T15:11:07.891Z,9.17
2017-07-02T15:13:36.217Z,13.93
2017-07-02T15:16:04.952Z,8.27
2017-07-02T15:18:33.285Z,10.43
2017-07-02T15:21:01.637Z,13.80
2017-07-02T15:23:30.370Z,7.13
2017-07-02T15:25:58.768Z,8.57
2017-07-02T15:28:27.863Z,12.77
2017-07-02T15:30:56.561Z,6.67
2017-07-02T15:33:24.933Z,7.80
2017-07-02T15:35:53.337Z,18.67
2017-07-02T15:38:22.201Z,11.77
2017-07-02T15:40:50.514Z,17.97
2017-07-02T15:43:18.861Z,7.60
2017-07-02T15:45:47.520Z,11.30
2017-07-02T15:48:15.873Z,11.93
2017-07-02T15:50:44.247Z,18.60
2017-07-02T15:53:13.328Z,17.30
2017-07-02T15:55:41.679Z,16.03
2017-07-02T15:58:10.043Z,10.80
2017-07-02T16:00:39.491Z,10.00
2017-07-02T16:03:07.819Z,17.23
2017-07-02T16:05:36.169Z,23.23
2017-07-02T16:08:05.127Z,14.97
2017-07-02T16:10:33.473Z,6.77
2017-07-02T16:13:01.822Z,6.93
2017-07-02T16:15:30.606Z,14.80
2017-07-02T16:17:58.929Z,6.50
2017-07-02T16:20:28.039Z,15.20
2017-07-02T16:22:56.667Z,12.60
2017-07-02T16:25:25.023Z,13.90
2017-07-02T16:27:53.400Z,11.47
2017-07-02T16:30:22.255Z,11.37
2017-07-02T16:32:50.604Z,15.90
2017-07-02T16:35:18.930Z,16.43
2017-07-02T16:37:48.025Z,14.03
2017-07-02T16:40:16.360Z,9.67
2017-07-02T16:42:44.685Z,7.93
2017-07-02T16:45:13.561Z,4.33
2017-07-02T16:47:41.889Z,9.10
2017-07-02T16:50:10.244Z,3.33
2017-07-02T16:52:38.887Z,5.53
2017-07-02T16:55:07.248Z,6.73
2017-07-02T16:57:35.573Z,6.90
2017-07-02T17:00:05.299Z,5.70
2017-07-02T17:02:33.625Z,4.47
2017-07-02T17:05:01.960Z,9.03
2017-07-02T17:07:30.575Z,3.80
2017-07-02T17:09:58.900Z,1.63
2017-07-02T17:12:27.236Z,7.80
2017-07-02T17:14:55.871Z,5.40
2017-07-02T17:17:24.188Z,3.70
2017-07-02T17:19:52.515Z,6.93
2017-07-02T17:22:21.619Z,5.27
2017-07-02T17:24:49.985Z,7.50
2017-07-02T17:27:19.102Z,9.93
2017-07-02T17:29:47.785Z,4.60
2017-07-02T17:32:16.130Z,15.73
2017-07-02T17:34:44.456Z,5.43
2017-07-02T17:37:13.308Z,8.67
2017-07-02T17:39:41.653Z,3.13
2017-07-02T17:42:10.020Z,3.43
2017-07-02T17:44:38.824Z,14.17
2017-07-02T17:47:07.155Z,3.43
2017-07-02T17:49:35.504Z,8.50
2017-07-02T17:52:04.442Z,3.43
2017-07-02T17:54:32.789Z,3.20
2017-07-02T17:57:01.123Z,6.70
2017-07-02T17:59:29.745Z,5.50
2017-07-02T18:01:58.857Z,17.00
2017-07-02T18:04:27.207Z,5.40
2017-07-02T18:06:55.975Z,8.33
2017-07-02T18:09:24.349Z,6.03
2017-07-02T18:11:52.771Z,5.03
2017-07-02T18:14:21.418Z,5.30
2017-07-02T18:16:49.907Z,10.53
2017-07-02T18:19:18.317Z,10.17
2017-07-02T18:21:46.942Z,4.70
2017-07-02T18:24:15.283Z,8.40
2017-07-02T18:26:43.655Z,4.87
2017-07-02T18:29:13.250Z,5.90
2017-07-02T18:31:41.612Z,6.73
2017-07-02T18:34:09.965Z,8.97
2017-07-02T18:36:38.614Z,5.47
2017-07-02T18:39:07.715Z,6.03
2017-07-02T18:41:36.087Z,6.60
2017-07-02T18:44:04.751Z,11.43
2017-07-02T18:46:33.108Z,11.23
2017-07-02T18:49:01.455Z,15.87
2017-07-02T18:51:30.434Z,7.87
2017-07-02T18:53:58.765Z,12.00
2017-07-02T18:56:27.115Z,6.73
2017-07-02T18:58:55.876Z,16.87
2017-07-02T19:01:24.197Z,8.00
2017-07-02T19:03:52.551Z,7.23
2017-07-02T19:06:21.340Z,15.83
2017-07-02T19:08:49.697Z,9.63
2017-07-02T19:11:18.798Z,6.17
2017-07-02T19:13:47.804Z,9.40
2017-07-02T19:16:16.140Z,15.57
2017-07-02T19:18:44.484Z,12.43
2017-07-02T19:21:13.139Z,11.87
2017-07-02T19:23:41.469Z,6.50
2017-07-02T19:26:09.816Z,12.87
2017-07-02T19:28:38.686Z,14.93
2017-07-02T19:31:07.104Z,13.60
2017-07-02T19:33:35.478Z,5.20
2017-07-02T19:36:04.217Z,4.30
2017-07-02T19:38:33.322Z,13.73
2017-07-02T19:41:02.426Z,16.23
2017-07-02T19:43:31.210Z,15.83
2017-07-02T19:45:59.543Z,6.97
2017-07-02T19:48:27.886Z,13.17
2017-07-02T19:50:56.539Z,14.23
2017-07-02T19:53:25.639Z,7.37
2017-07-02T19:55:53.995Z,9.60
2017-07-02T19:58:22.770Z,7.17
2017-07-02T20:00:51.117Z,14.70
2017-07-02T20:03:19.457Z,11.77
2017-07-02T20:05:48.371Z,13.90
2017-07-02T20:08:16.698Z,11.10
2017-07-02T20:10:45.032Z,8.43
2017-07-02T20:13:14.088Z,24.50
2017-07-02T20:15:42.416Z,6.87
2017-07-02T20:18:10.749Z,10.60
2017-07-02T20:20:39.727Z,11.13
2017-07-02T20:23:08.048Z,9.30
2017-07-02T20:25:36.375Z,12.30
2017-07-02T20:28:04.989Z,15.10
2017-07-02T20:30:34.114Z,15.97
2017-07-02T20:33:02.465Z,10.70
2017-07-02T20:35:31.101Z,9.30
2017-07-02T20:37:59.451Z,9.10
2017-07-02T20:40:27.793Z,13.10
2017-07-02T20:42:57.030Z,9.60
2017-07-02T20:45:25.361Z,7.63
2017-07-02T20:47:53.685Z,26.77
2017-07-02T20:50:22.463Z,15.70
2017-07-02T20:52:50.817Z,11.97
2017-07-02T20:55:19.162Z,6.17
2017-07-02T20:57:47.765Z,13.97
2017-07-02T21:00:16.101Z,4.80
2017-07-02T21:02:44.431Z,25.53
2017-07-02T21:05:13.225Z,17.40
2017-07-02T21:07:42.396Z,15.20
2017-07-02T21:10:10.739Z,11.43
2017-07-02T21:12:39.363Z,22.00
2017-07-02T21:15:07.703Z,7.90
2017-07-02T21:17:36.027Z,17.03
2017-07-02T21:20:04.687Z,11.70
2017-07-02T21:22:33.014Z,12.77
2017-07-02T21:25:01.351Z,8.47
2017-07-02T21:27:30.497Z,10.87
2017-07-02T21:29:58.838Z,13.40
2017-07-02T21:32:27.170Z,20.13
2017-07-02T21:34:55.811Z,11.33
2017-07-02T21:37:24.179Z,10.70
2017-07-02T21:39:52.521Z,15.23
2017-07-02T21:42:21.170Z,5.17
2017-07-02T21:44:49.509Z,16.00
2017-07-02T21:47:17.852Z,25.77
2017-07-02T21:49:46.652Z,7.80
2017-07-02T21:52:15.003Z,9.53
2017-07-02T21:54:44.118Z,5.87
2017-07-02T21:57:12.741Z,13.53
2017-07-02T21:59:41.091Z,16.13
2017-07-02T22:02:09.434Z,14.73
2017-07-02T22:04:38.351Z,14.93
2017-07-02T22:07:06.743Z,8.27
2017-07-02T22:09:35.087Z,18.80
2017-07-02T22:12:04.205Z,13.43
2017-07-02T22:14:32.548Z,11.57
2017-07-02T22:17:00.885Z,11.27
2017-07-02T22:19:29.557Z,10.57
2017-07-02T22:21:57.889Z,19.80
2017-07-02T22:24:26.240Z,11.60
2017-07-02T22:26:55.082Z,18.80
2017-07-02T22:29:23.423Z,13.90
2017-07-02T22:31:51.784Z,9.07
2017-07-02T22:34:20.527Z,4.97
2017-07-02T22:36:48.881Z,19.53
2017-07-02T22:39:17.218Z,13.23
2017-07-02T22:41:46.202Z,11.03
2017-07-02T22:44:14.558Z,6.70
2017-07-02T22:46:43.692Z,12.60
2017-07-02T22:49:12.355Z,13.57
2017-07-02T22:51:40.714Z,12.23
2017-07-02T22:54:09.046Z,9.13
2017-07-02T22:56:37.886Z,17.10
2017-07-02T22:59:06.231Z,22.63
2017-07-02T23:01:34.570Z,20.40
2017-07-02T23:04:03.355Z,11.77
2017-07-02T23:06:31.724Z,19.73
2017-07-02T23:09:00.043Z,15.80
2017-07-02T23:11:28.644Z,15.03
2017-07-02T23:13:57.014Z,7.87
2017-07-02T23:16:25.358Z,11.07
2017-07-02T23:18:54.418Z,18.20
2017-07-02T23:21:22.760Z,17.07
2017-07-02T23:23:51.097Z,9.37
2017-07-02T23:26:19.739Z,17.87
2017-07-02T23:28:48.082Z,7.97
2017-07-02T23:31:16.411Z,11.53
2017-07-02T23:33:45.119Z,9.47
2017-07-02T23:36:13.474Z,10.93
2017-07-02T23:38:41.801Z,8.20
2017-07-02T23:41:10.494Z,6.63
2017-07-02T23:43:38.826Z,14.00
2017-07-02T23:46:07.144Z,9.50
2017-07-02T23:48:36.011Z,12.13
2017-07-02T23:51:04.351Z,23.27
2017-07-02T23:53:32.686Z,10.60
2017-07-02T23:56:01.384Z,21.27
2017-07-02T23:58:29.740Z,12.13
